sensor_id;sensor_type;location;lat;lon;timestamp;temperature;humidity
60717;DHT22;46566;52.700;6.192;2024-01-11T07:57:53;-2.90;99.90
60717;DHT22;46566;52.700;6.192;2024-01-11T08:00:20;-3.10;99.90
60717;DHT22;46566;52.700;6.192;2024-01-11T08:02:45;-3.00;99.90
60717;DHT22;46566;52.700;6.192;2024-01-11T08:05:11;-3.00;99.90
60717;DHT22;46566;52.700;6.192;2024-01-11T08:07:37;-3.00;99.90
60717;DHT22;46566;52.700;6.192;2024-01-11T08:10:03;-3.00;99.90
60717;DHT22;46566;52.700;6.192;2024-01-11T08:12:29;-2.90;99.90
60717;DHT22;46566;52.700;6.192;2024-01-11T08:14:56;-2.90;99.90
60717;DHT22;46566;52.700;6.192;2024-01-11T08:17:21;-2.90;99.90
60717;DHT22;46566;52.700;6.192;2024-01-11T08:19:47;-2.80;99.90
60717;DHT22;46566;52.700;6.192;2024-01-11T08:22:13;-2.80;99.90
60717;DHT22;46566;52.700;6.192;2024-01-11T08:24:39;-2.70;99.90
60717;DHT22;46566;52.700;6.192;2024-01-11T08:27:05;-2.70;99.90
60717;DHT22;46566;52.700;6.192;2024-01-11T08:29:31;-2.70;99.90
60717;DHT22;46566;52.700;6.192;2024-01-11T08:31:57;-2.60;99.90
60717;DHT22;46566;52.700;6.192;2024-01-11T08:34:23;-2.60;99.90
60717;DHT22;46566;52.700;6.192;2024-01-11T08:36:49;-2.50;99.90
60717;DHT22;46566;52.700;6.192;2024-01-11T08:39:14;-2.50;99.90
60717;DHT22;46566;52.700;6.192;2024-01-11T08:41:40;-2.40;99.90
60717;DHT22;46566;52.700;6.192;2024-01-11T08:44:06;-2.40;99.90
60717;DHT22;46566;52.700;6.192;2024-01-11T08:46:32;-2.30;99.90
60717;DHT22;46566;52.700;6.192;2024-01-11T08:49:02;-2.30;99.90
60717;DHT22;46566;52.700;6.192;2024-01-11T08:51:30;-2.30;99.90
60717;DHT22;46566;52.700;6.192;2024-01-11T08:53:58;-2.20;99.90
60717;DHT22;46566;52.700;6.192;2024-01-11T08:56:23;-2.20;99.90
60717;DHT22;46566;52.700;6.192;2024-01-11T08:58:49;-2.10;99.90
60717;DHT22;46566;52.700;6.192;2024-01-11T09:01:15;-2.10;99.90
60717;DHT22;46566;52.700;6.192;2024-01-11T09:03:41;-2.00;99.90
60717;DHT22;46566;52.700;6.192;2024-01-11T09:06:07;-2.00;99.90
60717;DHT22;46566;52.700;6.192;2024-01-11T09:08:33;-1.90;99.90
60717;DHT22;46566;52.700;6.192;2024-01-11T09:10:59;-1.90;99.90
60717;DHT22;46566;52.700;6.192;2024-01-11T09:13:26;-1.90;99.90
60717;DHT22;46566;52.700;6.192;2024-01-11T09:15:53;-1.80;99.90
60717;DHT22;46566;52.700;6.192;2024-01-11T09:18:19;-1.80;99.90
60717;DHT22;46566;52.700;6.192;2024-01-11T09:20:45;-1.80;99.90
60717;DHT22;46566;52.700;6.192;2024-01-11T09:23:11;-1.70;99.90
60717;DHT22;46566;52.700;6.192;2024-01-11T09:25:37;-1.70;99.90
60717;DHT22;46566;52.700;6.192;2024-01-11T09:28:03;-1.70;99.90
60717;DHT22;46566;52.700;6.192;2024-01-11T09:30:29;-1.60;99.90
60717;DHT22;46566;52.700;6.192;2024-01-11T09:32:54;-1.60;99.90
60717;DHT22;46566;52.700;6.192;2024-01-11T09:35:22;-1.60;99.90
60717;DHT22;46566;52.700;6.192;2024-01-11T09:37:49;-1.50;99.90
60717;DHT22;46566;52.700;6.192;2024-01-11T09:40:15;-1.50;99.90
60717;DHT22;46566;52.700;6.192;2024-01-11T09:42:41;-1.40;99.90
60717;DHT22;46566;52.700;6.192;2024-01-11T09:45:17;-1.40;99.90
60717;DHT22;46566;52.700;6.192;2024-01-11T09:47:46;-1.40;99.90
60717;DHT22;46566;52.700;6.192;2024-01-11T09:50:13;-1.30;99.90
60717;DHT22;46566;52.700;6.192;2024-01-11T09:52:50;-1.30;99.90
60717;DHT22;46566;52.700;6.192;2024-01-11T09:55:19;-1.30;99.90
60717;DHT22;46566;52.700;6.192;2024-01-11T09:57:47;-1.20;99.90
60717;DHT22;46566;52.700;6.192;2024-01-11T10:00:22;-1.20;99.90
60717;DHT22;46566;52.700;6.192;2024-01-11T10:02:48;-1.10;99.90
60717;DHT22;46566;52.700;6.192;2024-01-11T10:05:14;-1.10;99.90
60717;DHT22;46566;52.700;6.192;2024-01-11T10:07:40;-1.10;99.90
60717;DHT22;46566;52.700;6.192;2024-01-11T10:10:07;-1.00;99.90
60717;DHT22;46566;52.700;6.192;2024-01-11T10:12:37;-1.00;99.90
60717;DHT22;46566;52.700;6.192;2024-01-11T10:15:07;-1.00;99.90
60717;DHT22;46566;52.700;6.192;2024-01-11T10:20:03;-0.90;99.90
60717;DHT22;46566;52.700;6.192;2024-01-11T10:22:29;-0.90;99.90
60717;DHT22;46566;52.700;6.192;2024-01-11T10:25:11;-0.80;99.90
60717;DHT22;46566;52.700;6.192;2024-01-11T10:27:39;-0.80;99.90
60717;DHT22;46566;52.700;6.192;2024-01-11T10:30:06;-0.80;99.90
60717;DHT22;46566;52.700;6.192;2024-01-11T10:32:33;-0.70;99.90
60717;DHT22;46566;52.700;6.192;2024-01-11T10:35:01;-0.70;99.90
60717;DHT22;46566;52.700;6.192;2024-01-11T10:37:50;-0.60;99.90
60717;DHT22;46566;52.700;6.192;2024-01-11T10:40:19;-0.60;99.90
60717;DHT22;46566;52.700;6.192;2024-01-11T10:42:51;-0.60;99.90
60717;DHT22;46566;52.700;6.192;2024-01-11T10:45:19;-0.50;99.90
60717;DHT22;46566;52.700;6.192;2024-01-11T10:48:02;-0.50;99.90
